KLNN/LNN METAR and TAF weather

Enter ICAO airport designator
Station Type Date Time Source
KLNN METAR 2021/05/11 22:55 UTC NOAA

KLNN 112255Z AUTO 28008KT 10SM CLR 10/M01 A3023 RMK AO1 T00971015


Station Type Date Time Source
KLNN Decoded METAR 2021/05/11 22:55 UTC NOAA

Willoughby, OH, United States (KLNN) 41-41N 081-23W
May 11, 2021 - 06:55 PM EDT / 2021.05.11 2255 UTC
Wind: from the W (280 degrees) at 9 MPH (8 KT):0
Visibility: 10 mile(s):0
Sky conditions: clear
Temperature: 49.5 F (9.7 C)
Dew Point: 29.3 F (-1.5 C)
Relative Humidity: 45%
Pressure (altimeter): 30.23 in. Hg (1023 hPa)
ob: KLNN 112255Z AUTO 28008KT 10SM CLR 10/M01 A3023 RMK AO1 T00971015
cycle: 23

Station Type Date Time Source
KLNN TAF UTC NOAA

Error!

Example: see airport list